createdAt,value
2018-04-28T00:01:04.534Z,1008.29
2018-04-28T00:02:13.373Z,1008.2
2018-04-28T00:03:22.254Z,1008.2
2018-04-28T00:04:31.087Z,1008.25
2018-04-28T00:05:39.917Z,1008.23
2018-04-28T00:06:48.752Z,1008.21
2018-04-28T00:07:57.949Z,1008.2
2018-04-28T00:09:07.069Z,1008.16
2018-04-28T00:10:15.901Z,1008.18
2018-04-28T00:11:24.734Z,1008.17
2018-04-28T00:12:33.568Z,1008.18
2018-04-28T00:13:42.401Z,1008.18
2018-04-28T00:14:51.235Z,1008.15
2018-04-28T00:16:00.353Z,1008.2
2018-04-28T00:17:09.186Z,1008.16
2018-04-28T00:18:18.021Z,1008.16
2018-04-28T00:19:27.159Z,1008.13
2018-04-28T00:20:36.268Z,1008.17
2018-04-28T00:21:45.104Z,1008.12
2018-04-28T00:22:53.935Z,1008.13
2018-04-28T00:24:02.768Z,1008.11
2018-04-28T00:25:11.981Z,1008.14
2018-04-28T00:26:21.370Z,1008.15
2018-04-28T00:27:30.207Z,1008.18
2018-04-28T00:28:39.041Z,1008.19
2018-04-28T00:29:47.871Z,1008.24
2018-04-28T00:30:57.107Z,1008.26
2018-04-28T00:32:06.213Z,1008.31
2018-04-28T00:33:15.059Z,1008.33
2018-04-28T00:34:24.168Z,1008.48
2018-04-28T00:35:33.004Z,1008.48
2018-04-28T00:36:41.838Z,1008.47
2018-04-28T00:37:50.670Z,1008.41
2018-04-28T00:38:59.506Z,1008.36
2018-04-28T00:40:08.338Z,1008.3
2018-04-28T00:41:17.173Z,1008.31
2018-04-28T00:42:26.056Z,1008.32
2018-04-28T00:43:34.888Z,1008.36
2018-04-28T00:44:43.723Z,1008.33
2018-04-28T00:45:52.559Z,1008.31
2018-04-28T00:47:01.398Z,1008.31
2018-04-28T00:48:10.557Z,1008.35
2018-04-28T00:49:19.391Z,1008.34
2018-04-28T00:50:28.225Z,1008.36
2018-04-28T00:51:37.060Z,1008.32
2018-04-28T00:52:45.896Z,1008.32
2018-04-28T00:53:55.014Z,1008.32
2018-04-28T00:55:03.852Z,1008.26
2018-04-28T00:56:12.685Z,1008.33
2018-04-28T00:57:21.795Z,1008.28
2018-04-28T00:58:30.627Z,1008.27
2018-04-28T00:59:39.561Z,1008.27
2018-04-28T01:00:48.393Z,1008.22
2018-04-28T01:01:57.228Z,1008.23
2018-04-28T01:03:06.074Z,1008.22
2018-04-28T01:04:14.910Z,1008.27
2018-04-28T01:05:23.893Z,1008.25
2018-04-28T01:06:32.724Z,1008.25
2018-04-28T01:07:41.557Z,1008.34
2018-04-28T01:08:50.396Z,1008.3
2018-04-28T01:09:59.504Z,1008.43
2018-04-28T01:11:08.865Z,1008.41
2018-04-28T01:12:17.699Z,1008.46
2018-04-28T01:13:26.535Z,1008.5
2018-04-28T01:14:35.364Z,1008.52
2018-04-28T01:15:44.470Z,1008.5
2018-04-28T01:16:53.604Z,1008.5
2018-04-28T01:18:02.439Z,1008.47
2018-04-28T01:19:11.277Z,1008.47
2018-04-28T01:20:20.107Z,1008.45
2018-04-28T01:21:28.939Z,1008.42
2018-04-28T01:22:38.023Z,1008.4
2018-04-28T01:23:47.138Z,1008.42
2018-04-28T01:24:55.973Z,1008.41
2018-04-28T01:26:04.807Z,1008.39
2018-04-28T01:27:13.646Z,1008.36
2018-04-28T01:28:23.052Z,1008.34
2018-04-28T01:29:31.887Z,1008.32
2018-04-28T01:30:40.995Z,1008.33
2018-04-28T01:31:49.830Z,1008.35
2018-04-28T01:32:58.663Z,1008.33
2018-04-28T01:34:07.495Z,1008.38
2018-04-28T01:35:16.326Z,1008.32
2018-04-28T01:36:25.158Z,1008.37
2018-04-28T01:37:33.990Z,1008.37
2018-04-28T01:38:43.156Z,1008.34
2018-04-28T01:39:52.140Z,1008.34
2018-04-28T01:41:00.973Z,1008.32
2018-04-28T01:42:09.807Z,1008.29
2018-04-28T01:43:18.639Z,1008.3
2018-04-28T01:44:27.470Z,1008.31
2018-04-28T01:45:36.781Z,1008.32
2018-04-28T01:46:45.615Z,1008.32
2018-04-28T01:47:54.456Z,1008.27
2018-04-28T01:49:03.612Z,1008.27
2018-04-28T01:50:12.447Z,1008.22
2018-04-28T01:51:21.383Z,1008.26
2018-04-28T01:52:30.222Z,1008.25
2018-04-28T01:53:39.068Z,1008.23
2018-04-28T01:54:47.888Z,1008.26
2018-04-28T01:55:56.719Z,1008.25
2018-04-28T01:57:05.703Z,1008.29
2018-04-28T01:58:14.540Z,1008.25
2018-04-28T01:59:23.371Z,1008.27
2018-04-28T02:00:32.204Z,1008.28
2018-04-28T02:01:41.038Z,1008.28
2018-04-28T02:02:50.022Z,1008.29
2018-04-28T02:03:59.410Z,1008.26
2018-04-28T02:05:08.520Z,1008.28
2018-04-28T02:06:17.353Z,1008.25
2018-04-28T02:07:26.461Z,1008.23
2018-04-28T02:08:35.396Z,1008.24
2018-04-28T02:09:44.224Z,1008.31
2018-04-28T02:10:53.059Z,1008.25
2018-04-28T02:12:02.176Z,1008.26
2018-04-28T02:13:11.007Z,1008.23
2018-04-28T02:14:20.039Z,1008.22
2018-04-28T02:15:28.872Z,1008.22
2018-04-28T02:16:37.708Z,1008.22
2018-04-28T02:17:46.540Z,1008.17
2018-04-28T02:18:55.375Z,1008.2
2018-04-28T02:20:04.207Z,1008.18
2018-04-28T02:21:13.043Z,1008.22
2018-04-28T02:22:21.876Z,1008.21
2018-04-28T02:23:30.707Z,1008.23
2018-04-28T02:24:39.540Z,1008.23
2018-04-28T02:25:48.526Z,1008.23
2018-04-28T02:26:57.358Z,1008.21
2018-04-28T02:28:06.466Z,1008.22
2018-04-28T02:29:15.298Z,1008.17
2018-04-28T02:30:24.133Z,1008.15
2018-04-28T02:31:33.451Z,1008.11
2018-04-28T02:32:42.645Z,1008.11
2018-04-28T02:33:51.469Z,1008.11
2018-04-28T02:35:00.577Z,1008.08
2018-04-28T02:36:09.687Z,1008.07
2018-04-28T02:37:18.852Z,1008.08
2018-04-28T02:38:27.964Z,1008.04
2018-04-28T02:39:37.344Z,1008.01
2018-04-28T02:40:46.179Z,1008.02
2018-04-28T02:41:55.293Z,1008.02
2018-04-28T02:43:04.502Z,1007.98
2018-04-28T02:44:13.337Z,1008.01
2018-04-28T02:45:22.460Z,1008.03
2018-04-28T02:46:31.664Z,1008.03
2018-04-28T02:47:41.050Z,1007.98
2018-04-28T02:48:50.277Z,1008.02
2018-04-28T02:49:59.452Z,1008.01
2018-04-28T02:51:08.230Z,1007.94
2018-04-28T02:52:17.624Z,1008.01
2018-04-28T02:53:27.004Z,1008.11
2018-04-28T02:54:35.888Z,1008.06
2018-04-28T02:55:45.551Z,1008.12
2018-04-28T02:56:54.386Z,1008.08
2018-04-28T02:58:03.495Z,1008.1
2018-04-28T02:59:12.603Z,1008.06
2018-04-28T03:00:21.862Z,1008.14
2018-04-28T03:01:31.268Z,1008.07
2018-04-28T03:02:40.384Z,1008.1
2018-04-28T03:03:49.489Z,1008.06
2018-04-28T03:04:58.607Z,1008.05
2018-04-28T03:06:07.490Z,1008.04
2018-04-28T03:07:17.156Z,1008
2018-04-28T03:08:25.990Z,1007.98
2018-04-28T03:09:35.099Z,1008
2018-04-28T03:10:44.208Z,1007.98
2018-04-28T03:11:53.690Z,1007.95
2018-04-28T03:13:02.802Z,1007.96
2018-04-28T03:14:11.638Z,1007.94
2018-04-28T03:15:20.742Z,1007.96
2018-04-28T03:16:29.576Z,1007.97
2018-04-28T03:17:38.511Z,1007.93
2018-04-28T03:18:47.346Z,1007.91
2018-04-28T03:19:56.179Z,1007.92
2018-04-28T03:21:05.010Z,1007.91
2018-04-28T03:22:13.843Z,1007.89
2018-04-28T03:23:23.089Z,1007.91
2018-04-28T03:24:31.919Z,1007.93
2018-04-28T03:25:40.752Z,1007.91
2018-04-28T03:26:49.582Z,1007.93
2018-04-28T03:27:58.412Z,1007.9
2018-04-28T03:29:07.521Z,1007.92
2018-04-28T03:30:16.629Z,1007.94
2018-04-28T03:31:26.016Z,1007.89
2018-04-28T03:32:34.854Z,1007.91
2018-04-28T03:33:43.688Z,1007.88
2018-04-28T03:34:52.896Z,1007.92
2018-04-28T03:36:01.732Z,1007.92
2018-04-28T03:37:10.564Z,1007.94
2018-04-28T03:38:19.398Z,1007.95
2018-04-28T03:39:28.232Z,1007.95
2018-04-28T03:40:37.224Z,1007.99
2018-04-28T03:41:46.054Z,1007.99
2018-04-28T03:42:54.887Z,1008.03
2018-04-28T03:44:03.719Z,1008.08
2018-04-28T03:45:12.826Z,1008.13
2018-04-28T03:46:21.961Z,1008.11
2018-04-28T03:47:30.792Z,1008.11
2018-04-28T03:48:39.900Z,1008.1
2018-04-28T03:49:48.731Z,1008.12
2018-04-28T03:50:57.850Z,1008.15
2018-04-28T03:52:07.281Z,1008.11
2018-04-28T03:53:16.114Z,1008.14
2018-04-28T03:54:24.952Z,1008.18
2018-04-28T03:55:33.788Z,1008.18
2018-04-28T03:56:42.620Z,1008.2
2018-04-28T03:57:51.453Z,1008.21
2018-04-28T03:59:00.287Z,1008.2
2018-04-28T04:00:09.118Z,1008.2
2018-04-28T04:01:18.236Z,1008.18
2018-04-28T04:02:27.068Z,1008.23
2018-04-28T04:03:36.050Z,1008.23
2018-04-28T04:04:44.882Z,1008.22
2018-04-28T04:05:53.990Z,1008.24
2018-04-28T04:07:03.100Z,1008.23
2018-04-28T04:08:11.932Z,1008.25
2018-04-28T04:09:20.914Z,1008.25
2018-04-28T04:10:30.027Z,1008.28
2018-04-28T04:11:38.859Z,1008.24
2018-04-28T04:12:47.967Z,1008.18
2018-04-28T04:13:56.802Z,1008.19
2018-04-28T04:15:06.062Z,1008.19
2018-04-28T04:16:14.893Z,1008.21
2018-04-28T04:17:24.003Z,1008.23
2018-04-28T04:18:32.837Z,1008.25
2018-04-28T04:19:41.670Z,1008.26
2018-04-28T04:20:50.803Z,1008.3
2018-04-28T04:21:59.636Z,1008.29
2018-04-28T04:23:08.469Z,1008.26
2018-04-28T04:24:17.576Z,1008.18
2018-04-28T04:25:26.410Z,1008.12
2018-04-28T04:26:35.351Z,1008.08
2018-04-28T04:27:44.077Z,1008.02
2018-04-28T04:28:52.916Z,1008.05
2018-04-28T04:30:02.019Z,1008.06
2018-04-28T04:31:11.126Z,1008.04
2018-04-28T04:32:19.971Z,1008.06
2018-04-28T04:33:28.792Z,1008.12
2018-04-28T04:34:37.627Z,1008.12
2018-04-28T04:35:46.732Z,1008.05
2018-04-28T04:36:55.568Z,1008.08
2018-04-28T04:38:04.698Z,1008.2
2018-04-28T04:39:13.533Z,1008.3
2018-04-28T04:40:22.373Z,1008.34
2018-04-28T04:41:31.202Z,1008.28
2018-04-28T04:42:40.033Z,1008.33
2018-04-28T04:43:49.143Z,1008.39
2018-04-28T04:44:57.974Z,1008.37
2018-04-28T04:46:07.086Z,1008.44
2018-04-28T04:47:16.192Z,1008.48
2018-04-28T04:48:25.304Z,1008.48
2018-04-28T04:49:34.284Z,1008.47
2018-04-28T04:50:43.115Z,1008.42
2018-04-28T04:51:51.948Z,1008.44
2018-04-28T04:53:00.779Z,1008.47
2018-04-28T04:54:09.611Z,1008.45
2018-04-28T04:55:18.596Z,1008.48
2018-04-28T04:56:27.430Z,1008.44
2018-04-28T04:57:36.535Z,1008.41
2018-04-28T04:58:45.368Z,1008.45
2018-04-28T04:59:54.204Z,1008.49
2018-04-28T05:01:03.186Z,1008.53
2018-04-28T05:02:12.027Z,1008.49
2018-04-28T05:03:20.857Z,1008.53
2018-04-28T05:04:29.692Z,1008.55
2018-04-28T05:05:39.078Z,1008.58
2018-04-28T05:06:47.911Z,1008.66
2018-04-28T05:07:56.742Z,1008.62
2018-04-28T05:09:05.579Z,1008.62
2018-04-28T05:10:14.686Z,1008.7
2018-04-28T05:11:23.519Z,1008.69
2018-04-28T05:12:32.500Z,1008.68
2018-04-28T05:13:41.333Z,1008.69
2018-04-28T05:14:50.165Z,1008.68
2018-04-28T05:15:59.001Z,1008.65
2018-04-28T05:17:07.835Z,1008.64
2018-04-28T05:18:16.669Z,1008.62
2018-04-28T05:19:25.500Z,1008.62
2018-04-28T05:20:34.331Z,1008.61
2018-04-28T05:21:43.741Z,1008.67
2018-04-28T05:22:52.573Z,1008.68
2018-04-28T05:24:01.557Z,1008.69
2018-04-28T05:25:10.666Z,1008.73
2018-04-28T05:26:19.497Z,1008.74
2018-04-28T05:27:28.330Z,1008.76
2018-04-28T05:28:37.166Z,1008.73
2018-04-28T05:29:46.007Z,1008.77
2018-04-28T05:30:54.834Z,1008.81
2018-04-28T05:32:03.667Z,1008.84
2018-04-28T05:33:12.501Z,1008.8
2018-04-28T05:34:21.336Z,1008.8
2018-04-28T05:35:30.318Z,1008.8
2018-04-28T05:36:39.151Z,1008.86
2018-04-28T05:37:47.983Z,1008.89
2018-04-28T05:38:56.818Z,1008.93
2018-04-28T05:40:05.653Z,1009
2018-04-28T05:41:14.817Z,1009
2018-04-28T05:42:24.029Z,1009.01
2018-04-28T05:43:32.863Z,1008.97
2018-04-28T05:44:41.695Z,1009.08
2018-04-28T05:45:50.531Z,1009.16
2018-04-28T05:46:59.369Z,1009.18
2018-04-28T05:48:08.483Z,1009.19
2018-04-28T05:49:17.315Z,1009.14
2018-04-28T05:50:26.428Z,1009.14
2018-04-28T05:51:35.262Z,1009.09
2018-04-28T05:52:44.097Z,1009.11
2018-04-28T05:53:52.930Z,1009.12
2018-04-28T05:55:02.323Z,1009.14
2018-04-28T05:56:11.156Z,1009.12
2018-04-28T05:57:19.989Z,1009.11
2018-04-28T05:58:29.198Z,1009.11
2018-04-28T05:59:38.033Z,1009.13
2018-04-28T06:00:46.868Z,1009.16
2018-04-28T06:01:55.700Z,1009.14
2018-04-28T06:03:04.531Z,1009.13
2018-04-28T06:04:13.464Z,1009.19
2018-04-28T06:05:22.297Z,1009.19
2018-04-28T06:06:31.133Z,1009.17
2018-04-28T06:07:39.967Z,1009.15
2018-04-28T06:08:49.079Z,1009.2
2018-04-28T06:09:58.574Z,1009.19
2018-04-28T06:11:07.407Z,1009.21
2018-04-28T06:12:16.515Z,1009.22
2018-04-28T06:13:25.346Z,1009.19
2018-04-28T06:14:34.178Z,1009.21
2018-04-28T06:15:43.161Z,1009.23
2018-04-28T06:16:52.273Z,1009.27
2018-04-28T06:18:01.469Z,1009.29
2018-04-28T06:19:10.301Z,1009.28
2018-04-28T06:20:19.221Z,1009.26
2018-04-28T06:21:28.341Z,1009.25
2018-04-28T06:22:37.184Z,1009.31
2018-04-28T06:23:46.015Z,1009.32
2018-04-28T06:24:54.850Z,1009.35
2018-04-28T06:26:04.341Z,1009.37
2018-04-28T06:27:13.903Z,1009.37
2018-04-28T06:28:23.014Z,1009.36
2018-04-28T06:29:32.127Z,1009.42
2018-04-28T06:30:40.961Z,1009.38
2018-04-28T06:31:49.797Z,1009.42
2018-04-28T06:32:58.963Z,1009.38
2018-04-28T06:34:08.070Z,1009.38
2018-04-28T06:35:16.902Z,1009.41
2018-04-28T06:36:25.736Z,1009.39
2018-04-28T06:37:34.570Z,1009.42
2018-04-28T06:38:43.704Z,1009.44
2018-04-28T06:39:52.583Z,1009.49
2018-04-28T06:41:01.377Z,1009.44
2018-04-28T06:42:10.515Z,1009.44
2018-04-28T06:43:19.351Z,1009.44
2018-04-28T06:44:28.760Z,1009.46
2018-04-28T06:45:37.867Z,1009.51
2018-04-28T06:46:46.698Z,1009.55
2018-04-28T06:47:55.530Z,1009.57
2018-04-28T06:49:04.365Z,1009.54
2018-04-28T06:50:13.204Z,1009.63
2018-04-28T06:51:22.314Z,1009.64
2018-04-28T06:52:31.149Z,1009.59
2018-04-28T06:53:39.983Z,1009.6
2018-04-28T06:54:48.819Z,1009.66
2018-04-28T06:55:57.704Z,1009.61
2018-04-28T06:57:06.542Z,1009.62
2018-04-28T06:58:15.379Z,1009.58
2018-04-28T06:59:24.213Z,1009.59
2018-04-28T07:00:33.050Z,1009.59
2018-04-28T07:01:41.886Z,1009.63
2018-04-28T07:02:50.722Z,1009.6
2018-04-28T07:04:00.125Z,1009.64
2018-04-28T07:05:09.233Z,1009.62
2018-04-28T07:06:18.067Z,1009.63
2018-04-28T07:07:27.326Z,1009.64
2018-04-28T07:08:36.439Z,1009.62
2018-04-28T07:09:45.274Z,1009.68
2018-04-28T07:10:54.178Z,1009.74
2018-04-28T07:12:02.943Z,1009.76
2018-04-28T07:13:12.204Z,1009.81
2018-04-28T07:14:21.040Z,1009.82
2018-04-28T07:15:29.873Z,1009.74
2018-04-28T07:16:38.710Z,1009.81
2018-04-28T07:17:47.544Z,1009.82
2018-04-28T07:18:56.383Z,1009.79
2018-04-28T07:20:05.497Z,1009.82
2018-04-28T07:21:14.335Z,1009.83
2018-04-28T07:22:23.443Z,1009.85
2018-04-28T07:23:32.277Z,1009.86
2018-04-28T07:24:41.112Z,1009.86
2018-04-28T07:25:49.947Z,1009.87
2018-04-28T07:26:58.781Z,1009.85
2018-04-28T07:28:07.892Z,1009.85
2018-04-28T07:29:16.732Z,1009.92
2018-04-28T07:30:25.565Z,1009.88
2018-04-28T07:31:34.679Z,1009.91
2018-04-28T07:32:43.516Z,1009.89
2018-04-28T07:33:52.353Z,1009.93
2018-04-28T07:35:01.189Z,1009.92
2018-04-28T07:36:10.299Z,1009.85
2018-04-28T07:37:19.134Z,1009.88
2018-04-28T07:38:27.975Z,1009.89
2018-04-28T07:39:36.812Z,1009.9
2018-04-28T07:40:45.933Z,1009.85
2018-04-28T07:41:54.769Z,1009.86
2018-04-28T07:43:03.611Z,1009.79
2018-04-28T07:44:12.448Z,1009.87
2018-04-28T07:45:21.352Z,1009.87
2018-04-28T07:46:30.188Z,1009.87
2018-04-28T07:47:39.079Z,1009.93
2018-04-28T07:48:47.868Z,1009.95
2018-04-28T07:49:56.753Z,1009.9
2018-04-28T07:51:05.596Z,1009.93
2018-04-28T07:52:14.441Z,1009.92
2018-04-28T07:53:23.287Z,1009.97
2018-04-28T07:54:32.122Z,1009.95
2018-04-28T07:55:41.059Z,1009.97
2018-04-28T07:56:49.903Z,1009.94
2018-04-28T07:57:58.740Z,1009.93
2018-04-28T07:59:07.575Z,1009.92
2018-04-28T08:00:16.421Z,1009.97
2018-04-28T08:01:25.730Z,1009.98
2018-04-28T08:02:34.565Z,1009.93
2018-04-28T08:03:43.679Z,1010
2018-04-28T08:04:52.510Z,1009.91
2018-04-28T08:06:01.346Z,1009.93
2018-04-28T08:07:10.563Z,1009.96
2018-04-28T08:08:19.397Z,1009.97
2018-04-28T08:09:28.241Z,1010
2018-04-28T08:10:37.077Z,1009.98
2018-04-28T08:11:45.909Z,1010
2018-04-28T08:12:54.853Z,1009.98
2018-04-28T08:14:03.683Z,1010.06
2018-04-28T08:15:12.812Z,1010.04
2018-04-28T08:16:22.364Z,1010.08
2018-04-28T08:17:31.201Z,1010.05
2018-04-28T08:18:40.791Z,1010.1
2018-04-28T08:19:49.629Z,1010.12
2018-04-28T08:20:58.470Z,1010.12
2018-04-28T08:22:07.307Z,1010.14
2018-04-28T08:23:16.144Z,1010.14
2018-04-28T08:24:25.184Z,1010.13
2018-04-28T08:25:34.570Z,1010.14
2018-04-28T08:26:43.403Z,1010.2
2018-04-28T08:27:52.238Z,1010.11
2018-04-28T08:29:01.077Z,1010.22
2018-04-28T08:30:10.212Z,1010.2
2018-04-28T08:31:19.327Z,1010.19
2018-04-28T08:32:28.166Z,1010.17
2018-04-28T08:33:37.275Z,1010.23
2018-04-28T08:34:46.115Z,1010.24
2018-04-28T08:35:55.377Z,1010.21
2018-04-28T08:37:04.242Z,1010.28
2018-04-28T08:38:13.876Z,1010.24
2018-04-28T08:39:22.715Z,1010.27
2018-04-28T08:40:31.550Z,1010.27
2018-04-28T08:41:40.438Z,1010.28
2018-04-28T08:42:49.275Z,1010.31
2018-04-28T08:43:58.113Z,1010.31
2018-04-28T08:45:06.947Z,1010.32
2018-04-28T08:46:16.392Z,1010.38
2018-04-28T08:47:25.604Z,1010.34
2018-04-28T08:48:34.443Z,1010.41
2018-04-28T08:49:43.281Z,1010.35
2018-04-28T08:50:52.117Z,1010.43
2018-04-28T08:52:01.272Z,1010.45
2018-04-28T08:53:10.120Z,1010.45
2018-04-28T08:54:18.960Z,1010.44
2018-04-28T08:55:27.797Z,1010.42
2018-04-28T08:56:36.641Z,1010.43
2018-04-28T08:57:45.485Z,1010.48
2018-04-28T08:58:54.325Z,1010.47
2018-04-28T09:00:03.172Z,1010.44
2018-04-28T09:01:12.012Z,1010.45
2018-04-28T09:02:20.852Z,1010.4
2018-04-28T09:03:29.694Z,1010.44
2018-04-28T09:04:38.629Z,1010.44
2018-04-28T09:05:47.752Z,1010.45
2018-04-28T09:06:56.589Z,1010.46
2018-04-28T09:08:05.426Z,1010.46
2018-04-28T09:09:14.265Z,1010.46
2018-04-28T09:10:23.254Z,1010.43
2018-04-28T09:11:32.091Z,1010.52
2018-04-28T09:12:40.932Z,1010.47
2018-04-28T09:13:50.049Z,1010.46
2018-04-28T09:14:58.887Z,1010.5
2018-04-28T09:16:07.923Z,1010.53
2018-04-28T09:17:16.762Z,1010.49
2018-04-28T09:18:26.145Z,1010.46
2018-04-28T09:19:35.017Z,1010.49
2018-04-28T09:20:44.246Z,1010.47
2018-04-28T09:21:53.485Z,1010.48
2018-04-28T09:23:02.324Z,1010.48
2018-04-28T09:24:11.162Z,1010.47
2018-04-28T09:25:20.003Z,1010.55
2018-04-28T09:26:29.116Z,1010.53
2018-04-28T09:27:38.207Z,1010.55
2018-04-28T09:28:47.044Z,1010.56
2018-04-28T09:29:55.883Z,1010.54
2018-04-28T09:31:04.725Z,1010.57
2018-04-28T09:32:13.566Z,1010.57
2018-04-28T09:33:22.504Z,1010.6
2018-04-28T09:34:31.343Z,1010.57
2018-04-28T09:35:40.183Z,1010.57
2018-04-28T09:36:49.026Z,1010.59
2018-04-28T09:37:57.864Z,1010.56
2018-04-28T09:39:06.989Z,1010.59
2018-04-28T09:40:15.820Z,1010.62
2018-04-28T09:41:24.663Z,1010.61
2018-04-28T09:42:33.773Z,1010.61
2018-04-28T09:43:42.613Z,1010.63
2018-04-28T09:44:51.701Z,1010.61
2018-04-28T09:46:00.542Z,1010.61
2018-04-28T09:47:09.379Z,1010.66
2018-04-28T09:48:18.492Z,1010.7
2018-04-28T09:49:27.331Z,1010.65
2018-04-28T09:50:36.424Z,1010.73
2018-04-28T09:51:45.264Z,1010.72
2018-04-28T09:52:54.100Z,1010.78
2018-04-28T09:54:02.936Z,1010.72
2018-04-28T09:55:11.775Z,1010.71
2018-04-28T09:56:20.613Z,1010.77
2018-04-28T09:57:29.452Z,1010.78
2018-04-28T09:58:38.294Z,1010.82
2018-04-28T09:59:47.129Z,1010.8
2018-04-28T10:00:55.967Z,1010.84
2018-04-28T10:02:04.904Z,1010.84
2018-04-28T10:03:13.744Z,1010.82
2018-04-28T10:04:22.584Z,1010.83
2018-04-28T10:05:31.421Z,1010.9
2018-04-28T10:06:40.261Z,1010.89
2018-04-28T10:07:49.098Z,1010.87
2018-04-28T10:08:57.938Z,1010.88
2018-04-28T10:10:07.053Z,1010.85
2018-04-28T10:11:15.892Z,1010.9
2018-04-28T10:12:24.734Z,1010.89
2018-04-28T10:13:33.996Z,1010.85
2018-04-28T10:14:42.841Z,1010.81
2018-04-28T10:15:51.677Z,1010.83
2018-04-28T10:17:00.515Z,1010.81
2018-04-28T10:18:09.353Z,1010.84
2018-04-28T10:19:18.868Z,1010.82
2018-04-28T10:20:27.757Z,1010.8
2018-04-28T10:21:36.821Z,1010.73
2018-04-28T10:22:45.659Z,1010.71
2018-04-28T10:23:54.769Z,1010.75
2018-04-28T10:25:03.610Z,1010.8
2018-04-28T10:26:12.446Z,1010.75
2018-04-28T10:27:21.558Z,1010.75
2018-04-28T10:28:30.401Z,1010.77
2018-04-28T10:29:39.241Z,1010.75
2018-04-28T10:30:48.678Z,1010.74
2018-04-28T10:31:57.495Z,1010.75
2018-04-28T10:33:06.621Z,1010.71
2018-04-28T10:34:15.461Z,1010.72
2018-04-28T10:35:24.301Z,1010.69
2018-04-28T10:36:33.718Z,1010.73
2018-04-28T10:37:42.556Z,1010.74
2018-04-28T10:38:51.943Z,1010.75
2018-04-28T10:40:00.783Z,1010.74
2018-04-28T10:41:09.624Z,1010.77
2018-04-28T10:42:18.514Z,1010.75
2018-04-28T10:43:27.624Z,1010.73
2018-04-28T10:44:36.466Z,1010.72
2018-04-28T10:45:45.583Z,1010.66
2018-04-28T10:46:54.423Z,1010.76
2018-04-28T10:48:04.110Z,1010.74
2018-04-28T10:49:12.951Z,1010.77
2018-04-28T10:50:21.789Z,1010.76
2018-04-28T10:51:30.629Z,1010.79
2018-04-28T10:52:39.470Z,1010.8
2018-04-28T10:53:48.732Z,1010.77
2018-04-28T10:54:57.949Z,1010.77
2018-04-28T10:56:06.789Z,1010.77
2018-04-28T10:57:15.629Z,1010.76
2018-04-28T10:58:24.468Z,1010.77
2018-04-28T10:59:33.407Z,1010.87
2018-04-28T11:00:42.249Z,1010.85
2018-04-28T11:01:51.091Z,1010.85
2018-04-28T11:03:00.207Z,1010.8
2018-04-28T11:04:09.053Z,1010.71
2018-04-28T11:05:18.537Z,1010.78
2018-04-28T11:06:27.654Z,1010.78
2018-04-28T11:07:36.498Z,1010.82
2018-04-28T11:08:45.337Z,1010.81
2018-04-28T11:09:54.179Z,1010.89
2018-04-28T11:11:03.070Z,1010.9
2018-04-28T11:12:11.909Z,1010.89
2018-04-28T11:13:20.819Z,1010.96
2018-04-28T11:14:29.960Z,1011
2018-04-28T11:15:38.803Z,1010.87
2018-04-28T11:16:48.321Z,1010.9
2018-04-28T11:17:57.161Z,1010.89
2018-04-28T11:19:06.002Z,1010.94
2018-04-28T11:20:14.841Z,1010.85
2018-04-28T11:21:23.681Z,1010.95
2018-04-28T11:22:32.523Z,1010.97
2018-04-28T11:23:41.935Z,1010.98
2018-04-28T11:24:50.774Z,1010.95
2018-04-28T11:25:59.613Z,1010.95
2018-04-28T11:27:08.453Z,1010.95
2018-04-28T11:28:17.443Z,1010.99
2018-04-28T11:29:26.609Z,1010.98
2018-04-28T11:30:35.448Z,1010.99
2018-04-28T11:31:44.289Z,1010.98
2018-04-28T11:32:53.165Z,1011
2018-04-28T11:34:02.478Z,1011.02
2018-04-28T11:35:11.591Z,1011.03
2018-04-28T11:36:20.705Z,1010.98
2018-04-28T11:37:29.543Z,1011
2018-04-28T11:38:38.380Z,1011.01
2018-04-28T11:39:47.221Z,1011
2018-04-28T11:40:56.622Z,1010.96
2018-04-28T11:42:05.461Z,1010.97
2018-04-28T11:43:14.301Z,1011.03
2018-04-28T11:44:23.416Z,1010.97
2018-04-28T11:45:32.406Z,1011.02
2018-04-28T11:46:41.244Z,1011.03
2018-04-28T11:47:50.359Z,1011.02
2018-04-28T11:48:59.199Z,1011.03
2018-04-28T11:50:08.039Z,1011.05
2018-04-28T11:51:17.253Z,1011.12
2018-04-28T11:52:26.098Z,1011.12
2018-04-28T11:53:34.932Z,1011.08
2018-04-28T11:54:43.771Z,1011.09
2018-04-28T11:55:52.609Z,1011.04
2018-04-28T11:57:01.612Z,1011.05
2018-04-28T11:58:10.433Z,1011.04
2018-04-28T11:59:19.275Z,1011.05
2018-04-28T12:00:28.116Z,1011.07
2018-04-28T12:01:36.953Z,1011.08
2018-04-28T12:02:46.177Z,1011.11
2018-04-28T12:03:55.186Z,1011.08
2018-04-28T12:05:04.053Z,1011.11
2018-04-28T12:06:12.864Z,1011.1
2018-04-28T12:07:21.703Z,1011.13
2018-04-28T12:08:30.917Z,1011.08
2018-04-28T12:09:40.036Z,1011.11
2018-04-28T12:10:49.151Z,1011.12
2018-04-28T12:11:57.989Z,1011.13
2018-04-28T12:13:06.829Z,1011.11
2018-04-28T12:14:15.670Z,1011.13
2018-04-28T12:15:24.509Z,1011.12
2018-04-28T12:16:33.349Z,1011.15
2018-04-28T12:17:42.190Z,1011.21
2018-04-28T12:18:51.027Z,1011.14
2018-04-28T12:20:00.072Z,1011.17
2018-04-28T12:21:08.984Z,1011.21
2018-04-28T12:22:18.019Z,1011.18
2018-04-28T12:23:26.861Z,1011.17
2018-04-28T12:24:35.699Z,1011.16
2018-04-28T12:25:44.637Z,1011.18
2018-04-28T12:26:53.481Z,1011.2
2018-04-28T12:28:02.322Z,1011.22
2018-04-28T12:29:11.159Z,1011.19
2018-04-28T12:30:20.000Z,1011.21
2018-04-28T12:31:29.038Z,1011.23
2018-04-28T12:32:37.829Z,1011.2
2018-04-28T12:33:46.669Z,1011.23
2018-04-28T12:34:55.509Z,1011.25
2018-04-28T12:36:04.386Z,1011.22
2018-04-28T12:37:13.912Z,1011.17
2018-04-28T12:38:22.752Z,1011.17
2018-04-28T12:39:31.592Z,1011.18
2018-04-28T12:40:40.431Z,1011.21
2018-04-28T12:41:49.273Z,1011.25
2018-04-28T12:42:58.213Z,1011.18
2018-04-28T12:44:07.053Z,1011.18
2018-04-28T12:45:15.895Z,1011.22
2018-04-28T12:46:24.735Z,1011.25
2018-04-28T12:47:33.857Z,1011.23
2018-04-28T12:48:43.297Z,1011.18
2018-04-28T12:49:52.414Z,1011.25
2018-04-28T12:51:01.251Z,1011.23
2018-04-28T12:52:10.092Z,1011.23
2018-04-28T12:53:18.942Z,1011.22
2018-04-28T12:54:27.882Z,1011.18
2018-04-28T12:55:36.722Z,1011.16
2018-04-28T12:56:45.562Z,1011.15
2018-04-28T12:57:54.684Z,1011.19
2018-04-28T12:59:04.075Z,1011.19
2018-04-28T13:00:13.067Z,1011.15
2018-04-28T13:01:22.187Z,1011.16
2018-04-28T13:02:31.306Z,1011.17
2018-04-28T13:03:40.147Z,1011.22
2018-04-28T13:04:49.536Z,1011.23
2018-04-28T13:05:58.376Z,1011.21
2018-04-28T13:07:07.217Z,1011.18
2018-04-28T13:08:16.058Z,1011.2
2018-04-28T13:09:24.898Z,1011.18
2018-04-28T13:10:33.739Z,1011.16
2018-04-28T13:11:43.011Z,1011.21
2018-04-28T13:12:52.127Z,1011.22
2018-04-28T13:14:00.970Z,1011.27
2018-04-28T13:15:10.088Z,1011.18
2018-04-28T13:16:18.930Z,1011.2
2018-04-28T13:17:28.162Z,1011.19
2018-04-28T13:18:36.939Z,1011.3
2018-04-28T13:19:45.781Z,1011.15
2018-04-28T13:20:54.897Z,1011.15
2018-04-28T13:22:03.739Z,1011.17
2018-04-28T13:23:12.580Z,1011.15
2018-04-28T13:24:21.425Z,1011.12
2018-04-28T13:25:30.269Z,1011.12
2018-04-28T13:26:39.108Z,1011.1
2018-04-28T13:27:47.950Z,1011.12
2018-04-28T13:28:57.093Z,1011.24
2018-04-28T13:30:05.935Z,1011.21
2018-04-28T13:31:14.783Z,1011.18
2018-04-28T13:32:23.616Z,1011.2
2018-04-28T13:33:32.461Z,1011.32
2018-04-28T13:34:41.354Z,1011.17
2018-04-28T13:35:50.201Z,1011.15
2018-04-28T13:36:59.319Z,1011.18
2018-04-28T13:38:08.162Z,1011.17
2018-04-28T13:39:17.008Z,1011.19
2018-04-28T13:40:25.851Z,1011.12
2018-04-28T13:41:34.696Z,1011.07
2018-04-28T13:42:43.813Z,1011.11
2018-04-28T13:43:52.655Z,1011.13
2018-04-28T13:45:01.499Z,1011.15
2018-04-28T13:46:10.492Z,1011.13
2018-04-28T13:47:19.336Z,1011.09
2018-04-28T13:48:28.452Z,1011.11
2018-04-28T13:49:37.294Z,1011.11
2018-04-28T13:50:46.140Z,1011.03
2018-04-28T13:51:55.356Z,1010.94
2018-04-28T13:53:04.200Z,1010.99
2018-04-28T13:54:13.046Z,1010.98
2018-04-28T13:55:21.888Z,1011.02
2018-04-28T13:56:31.007Z,1010.99
2018-04-28T13:57:40.447Z,1011.04